Extreme weather reports worldwide

High winds

Station
 
Location
 
Name
 
Wind
Knots
Gust
Knots
Vis
SM
Temp/Dew
C
Baro
inHg
METAR
 
ENJS 46 5/2 30.03 ENJS 050450Z 13046KT 9999 FEW015 BKN045 05/02 Q1017 W07/S5
ENSL NO Sleipner A Platform 43 6/2 30.00 ENSL 050450Z AUTO 12043KT 9999 BKN017/// 06/02 Q1016 W04/S6
ENLA NO Ula Platform 37 6/2 29.97 ENLA 050450Z AUTO 11037KT 9999NDV OVC022/// 06/02 Q1015 W///S5
FBU ENFB Oslo, NO Oslo, Fornebu Airport 35 7/0 30.12 ENFB 050450Z AUTO 15035KT 9999 -SHRA BKN029/// 07/00 Q1020 W///S5
ENSF 34 8/0 30.12 ENSF 050450Z AUTO 18034KT 9999 -RA OVC030/// 08/M00 Q1020 W///S5

Station
 
Location
 
Name
 
Wind
Knots
Gust
Knots
Vis
SM
Temp/Dew
C
Baro
inHg
METAR
 
PIZ PPIZ Point Lay, US Point Lay LRRS Airport 34 0.25 -24/-27 29.85 PPIZ 050456Z AUTO 06034KT 1/4SM +SN OVC003 M24/M27 A2985 RMK AO2 PK WND 05041/0443 SLP113 P0000 T12441272 FZRANO
ENLE 33 5/1 29.97 ENLE 050450Z 10033KT 9999 BKN020 05/01 Q1015 W07/S5
ENWV 33 5/4 29.97 ENWV 050450Z AUTO 11033KT 8000NDV OVC015/// 05/04 Q1015 W///S5
ENQR 31 6/1 30.15 ENQR 050450Z AUTO 17031KT 9999 FEW047/// BKN080/// BKN120/// 06/01 Q1021 W04/S5
ENNE 29 6/3 30.21 ENNE 050450Z AUTO 16029KT CAVOK 06/03 Q1023 W///S5
ENGC 28 5/1 30.15 ENGC 050420Z 15028KT 9999 -RA BKN045 05/01 Q1021 W07/S5
SNN EINN Shannon, IE Shannon Airport 28 39 2.17 6/5 29.44 EINN 050430Z 22028G39KT 3500 RA FEW012 BKN015 BKN020 06/05 Q0997 NOSIG
KTBX 28 37 -9/-20 29.87 KTBX 050455Z AUTO 19028G37KT 10SM CLR M09/M20 A2987 RMK AO2
TRE EGPU Balemartine, GB Tiree Airport 27 7/5 29.50 EGPU 050450Z AUTO 12027KT 9999 OVC025/// 07/05 Q0999
KMWN 26 34 0.13 -1/-1 KMWN 050357Z 20026G34KT 1/8SM FZFG VV003 M01/M01 RMK VRY LGT GICG
CWHO 26 -13/-21 CWHO 050400Z AUTO 00026KT M14/M21 RMK AO1 SLP260 T11391210 57018
ENOA NO Oseberg A Platform 26 6/0 30.15 ENOA 050450Z 15026KT 9999 BKN045 06/00 Q1021 W///S5
KMYP 26 33 -9/-12 30.07 KMYP 050457Z AUTO 27026G33KT M09/M12 A3007 RMK AO2 PWINO
EIME Baldonnel, IE Casement Air Base 25 36 7/2 29.50 EIME 050400Z 19025G36KT 9999 FEW018 07/02 Q0999
EHAK 25 6/5 29.94 EHAK 050455Z AUTO 11025KT 9999 BKN004/// OVC005/// 06/05 Q1014
KEF BIKF Reykjavík, IS Keflavik International Airport 24 6/4 29.53 BIKF 050430Z 11024KT 9999 SCT024 06/04 Q1000
WIC EGPC Wick, GB Wick Airport 24 7/4 29.82 EGPC 050450Z AUTO 13024KT 9999 BKN014/// OVC029/// 07/04 Q1010
KMTK 24 22/20 29.86 KMTK 050455Z AUTO 15024KT 10SM FEW021 SCT035 OVC070 22/20 A2986 RMK A01
VLY EGOV Angelsey, GB Anglesey Airport 23 8/5 29.65 EGOV 050420Z AUTO 18023KT 9999 FEW012/// 08/05 Q1004
DYR UHMA Anadyr, RU Ugolny Airport 23 1.12 -11/-13 29.44 UHMA 050430Z 04012MPS 1800 0900N R02/1900 -SN BLSN FEW010 SCT040 BKN050 M11/M13 Q0997 R02/420560 NOSIG RMK MID 04013G16MPS END R02/04014G19MPS QFE744/0992
BEB EGPL Balivanich, GB Benbecula Airport 23 7/3 29.53 EGPL 050450Z AUTO 14023KT 9999 SCT042/// 07/03 Q1000
ENDR 23 6/3 30.18 ENDR 050450Z AUTO 14023KT 9999NDV NCD 06/03 Q1022 W///S4
ENHE 23 8/4 30.21 ENHE 050450Z 15023KT CAVOK 08/04 Q1023 W///S4
SMI LGSM Samos Island, GR Samos Airport 23 33 16/12 29.70 LGSM 050450Z 14023G33KT 9999 FEW020 BKN025 16/12 Q1006
YPH CYPH Inukjuak, CA Inukjuak Airport 23 0.5 -15/-17 29.82 CYPH 050451Z AUTO 10023KT 1/2SM SN BLSN BKN027 BKN038 OVC045 M15/M17 A2982 RMK PRESFR SLP103
RAC KRAC Racine, US John H Batten Airport 23 41 5/2 29.92 KRAC 050453Z AUTO 36023G41KT 10SM -RA OVC008 05/03 A2992 RMK AO2 PK WND 02041/0453 LTG DSNT NW RAB19 SLP135 P0002 T00500028
MHV KMHV Mojave, US Mojave Airport 23 31 7/-1 30.02 KMHV 050500Z AUTO 29023G31KT 10SM CLR 07/M01 A3002 RMK AO2
KVOA 23 1.5 22/20 29.96 KVOA 050500Z AUTO 11023KT 1 1/2SM HZ FEW005 SCT013 OVC027 22/20 A2996 RMK A01 P0005
EGQA 22 7/4 29.70 EGQA 050420Z AUTO 09022KT 9999 OVC029/// 07/04 Q1006
KGS LGKO Kos Island, GR Kos Airport 22 14/10 29.82 LGKO 050450Z 14022KT 9999 FEW020 14/10 Q1010
JSY LGSO Syros Island, GR Syros Airport 22 13/8 29.68 LGSO 050450Z AUTO 27022KT //// -RA ////// 13/08 Q1005 RE//
WAL KWAL Wallops Island, US Wallops Flight Facility Airport 22 28 5 8/8 30.13 KWAL 050454Z AUTO 05022G28KT 5SM -RA BR OVC004 09/09 A3013 RMK AO2 PK WND 04034/0428 SLP200 P0009 T00890089 401330061
K0CO 22 40 -12/-15 29.88 K0CO 050455Z AUTO 27022G40KT SCT011 BKN021 OVC028 M12/M15 A2988 RMK AO2 PWINO
KIKT 22 6 22/21 29.92 KIKT 050455Z AUTO 14022KT 6SM BR FEW007 BKN032 BKN045 22/21 A2992 RMK A01
ADK PADK Adak Island, US Adak Airport 22 25 2/-1 29.77 PADK 050456Z AUTO 25022G25KT 10SM FEW023 BKN033 OVC042 03/M02 A2977 RMK AO2 RAB15E56 SLP082 P0000 T00281017 $
KUS BGKK Kulusuk, GL Kulusuk Airport 21 0/-3 29.50 BGKK 050450Z AUTO 07021KT 9999NDV -SHRA FEW014/// BKN030/// M00/M03 Q0999
LSI EGPB Lerwick, GB Sumburgh Airport 21 31 7/5 29.97 EGPB 050450Z AUTO 15021G31KT 9999 BKN011/// OVC042/// 07/05 Q1015
AIA KAIA Alliance, US Alliance Municipal Airport 21 28 0/0 29.96 KAIA 050453Z AUTO 20021G28KT 10SM OVC032 01/M01 A2996 RMK AO2 PK WND 20032/0356 SNE41 SLP158 P0000 T00061006 $
CGI KCGI Cape Girardeau, US Cape Girardeau Regional Airport 21 34 20/15 29.88 KCGI 050453Z AUTO 20021G34KT 10SM -TSRA FEW060 BKN100 20/16 A2988 RMK AO2 PK WND 19034/0451 LTG DSNT S-NW RAB19 TSE0356B49 SLP117 P0000 T02000156
CZF PACZ Cape Romanzof, US Cape Romanzof LRRS Airport 21 6 -2/-3 29.49 PACZ 050455Z AUTO 18021KT 6SM -FZDZ OVC004 M02/M03 A2949 RMK AO2 PK WND 19029/0359 SLP995 P0000 T10231032
EHM PAEH Cape Newenham, US Cape Newenham LRRS Airport 21 26 0/-4 29.72 PAEH 050455Z AUTO 01021G26KT 10SM OVC065 00/M04 A2972 RMK AO2 PK WND 01029/0409 SLP074 T00031042
SHG PAGH Shungnak, US Shungnak Airport 21 27 1.75 -8/-10 29.77 PAGH 050456Z AUTO 11021G27KT 1 3/4SM -SN BR FEW020 OVC031 M09/M11 A2977 RMK AO2 PK WND 11029/0406 SLP089 P0000 T10891106 FZRANO
UKB RJBE Kobe, JP Kobe Airport 20 7/5 29.91 RJBE 050400Z 05020KT 9999 -RA FEW006 SCT010 BKN035 07/05 Q1013
MMY ROMY Miyako City, JP Miyako Airport 20 27/24 29.82 ROMY 050400Z 19020KT 9999 FEW007 SCT009 27/24 Q1010
KTD RORK Kitadaitōjima, JP Kitadaito Airport 20 25/22 29.88 RORK 050400Z AUTO 17020KT 9999 FEW016 BKN017 BKN021 25/22 Q1012